Time;durP1;ratioP1;P1;durP2;ratioP2;P2;SDS_P1;SDS_P2;PMS_P1;PMS_P2;Temp;Humidity;BMP_temperature;BMP_pressure;BME280_temperature;BME280_humidity;BME280_pressure;Samples;Min_cycle;Max_cycle;Signal;HPM_P1;HPM_P2
2023/09/19 00:01:57;;;;;;;16.52;4.55;;;;;;;13.75;100.00;92411.28;5056437;28;20040;-81
2023/09/19 00:04:28;;;;;;;13.52;5.05;;;;;;;13.73;100.00;92411.59;5055970;28;20041;-81
2023/09/19 00:06:54;;;;;;;15.10;4.63;;;;;;;13.71;100.00;92407.69;5055925;28;20487;-81
2023/09/19 00:09:20;;;;;;;20.13;4.60;;;;;;;13.69;100.00;92405.41;5055502;28;20044;-81
2023/09/19 00:11:47;;;;;;;18.52;5.25;;;;;;;13.67;100.00;92393.63;5056250;28;20040;-80
2023/09/19 00:14:13;;;;;;;14.18;4.47;;;;;;;13.64;100.00;92392.38;5056059;28;20424;-81
2023/09/19 00:16:41;;;;;;;18.00;5.70;;;;;;;13.62;100.00;92391.13;5055328;28;20037;-81
2023/09/19 00:19:07;;;;;;;22.67;5.15;;;;;;;13.57;100.00;92386.03;5056090;28;20057;-81
2023/09/19 00:21:32;;;;;;;18.42;5.75;;;;;;;13.58;100.00;92387.56;5055815;28;20037;-81
2023/09/19 00:23:58;;;;;;;20.25;5.80;;;;;;;13.58;100.00;92390.19;5054675;28;20055;-81
2023/09/19 00:26:24;;;;;;;15.75;5.55;;;;;;;13.56;100.00;92395.00;5055251;28;20045;-81
2023/09/19 00:28:52;;;;;;;17.05;6.03;;;;;;;13.56;100.00;92389.75;5055746;28;20021;-81
2023/09/19 00:31:18;;;;;;;22.17;5.75;;;;;;;13.55;100.00;92404.72;5054387;28;20036;-81
2023/09/19 00:33:44;;;;;;;14.82;5.45;;;;;;;13.55;100.00;92404.72;5055344;28;20041;-79
2023/09/19 00:36:09;;;;;;;26.33;5.95;;;;;;;13.52;100.00;92398.22;5055994;28;20425;-81
2023/09/19 00:38:35;;;;;;;15.15;4.90;;;;;;;13.50;100.00;92397.75;5054768;28;20480;-80
2023/09/19 00:41:00;;;;;;;12.35;4.25;;;;;;;13.47;100.00;92406.25;5055139;28;20052;-81
2023/09/19 00:43:27;;;;;;;12.02;3.80;;;;;;;13.44;100.00;92408.72;5054066;28;20040;-81
2023/09/19 00:45:55;;;;;;;14.25;4.00;;;;;;;13.42;100.00;92400.34;5054044;28;20041;-81
2023/09/19 00:48:21;;;;;;;11.00;3.90;;;;;;;13.42;100.00;92395.09;5053784;28;20438;-81
2023/09/19 00:50:49;;;;;;;9.15;3.40;;;;;;;13.46;100.00;92396.03;5037144;28;20064;-80
2023/09/19 00:53:18;;;;;;;14.98;3.53;;;;;;;13.43;100.00;92392.16;5054918;28;20028;-80
2023/09/19 00:55:45;;;;;;;10.75;3.35;;;;;;;13.38;100.00;92387.06;5054409;28;20076;-81
2023/09/19 00:58:11;;;;;;;6.88;3.25;;;;;;;13.35;100.00;92390.28;5055179;28;20489;-81
2023/09/19 01:00:38;;;;;;;9.82;3.35;;;;;;;13.29;100.00;92376.50;5055101;28;20051;-81
2023/09/19 01:03:06;;;;;;;11.00;3.47;;;;;;;13.32;100.00;92385.66;5053788;28;20025;-81
2023/09/19 01:05:34;;;;;;;10.23;3.65;;;;;;;13.31;100.00;92389.38;5053553;28;20045;-81
2023/09/19 01:07:59;;;;;;;10.20;3.78;;;;;;;13.33;100.00;92389.84;5053560;28;20040;-81
2023/09/19 01:10:25;;;;;;;6.57;3.08;;;;;;;13.38;100.00;92384.44;5053518;28;20040;-81
2023/09/19 01:13:04;;;;;;;19.13;3.92;;;;;;;13.37;100.00;92396.00;5054912;28;20029;-81
2023/09/19 01:15:40;;;;;;;8.10;3.42;;;;;;;13.31;100.00;92399.88;5053123;28;20072;-81
2023/09/19 01:18:06;;;;;;;11.00;3.50;;;;;;;13.28;100.00;92403.09;5055143;28;20524;-81
2023/09/19 01:20:35;;;;;;;11.65;3.72;;;;;;;13.27;100.00;92398.91;5054274;28;20048;-81
2023/09/19 01:23:38;;;;;;;9.98;3.20;;;;;;;13.25;100.00;92403.69;5055139;28;20037;-81
2023/09/19 01:26:45;;;;;;;7.68;3.65;;;;;;;13.20;100.00;92409.84;5054040;28;20068;-81
2023/09/19 01:29:39;;;;;;;10.63;3.45;;;;;;;13.17;100.00;92414.94;5052953;28;20032;-80
2023/09/19 01:32:09;;;;;;;14.70;2.92;;;;;;;13.14;100.00;92416.31;5054360;28;20037;-80
2023/09/19 01:34:48;;;;;;;10.93;3.00;;;;;;;13.12;100.00;92419.25;5054488;28;20052;-80
2023/09/19 01:37:24;;;;;;;13.60;2.92;;;;;;;13.12;100.00;92408.72;5054537;28;20151;-80
2023/09/19 01:40:04;;;;;;;8.55;3.70;;;;;;;13.13;100.00;92414.78;5054164;28;20068;-80
2023/09/19 01:42:48;;;;;;;13.80;4.40;;;;;;;13.13;100.00;92415.56;5054713;28;20029;-80
2023/09/19 01:45:18;;;;;;;14.45;4.43;;;;;;;13.14;100.00;92416.31;5053917;28;20574;-80
2023/09/19 01:47:55;;;;;;;16.75;4.85;;;;;;;13.13;100.00;92415.56;5053995;28;20032;-80
2023/09/19 01:50:41;;;;;;;15.50;4.10;;;;;;;13.11;100.00;92417.69;5054238;28;20124;-80
2023/09/19 01:53:15;;;;;;;13.82;5.80;;;;;;;13.06;100.00;92414.41;5054050;28;20041;-80
2023/09/19 01:55:51;;;;;;;15.00;5.18;;;;;;;13.09;100.00;92411.97;5053700;28;20041;-79
2023/09/19 01:58:31;;;;;;;19.88;5.68;;;;;;;13.10;100.00;92407.47;5052366;28;20037;-80
2023/09/19 02:01:00;;;;;;;14.43;5.03;;;;;;;13.10;100.00;92408.28;5051872;28;20033;-80
2023/09/19 02:03:27;;;;;;;15.23;5.75;;;;;;;13.10;100.00;92410.09;5052260;28;20083;-80
2023/09/19 02:05:53;;;;;;;25.15;5.22;;;;;;;13.10;100.00;92412.75;5054014;28;20036;-79
2023/09/19 02:08:23;;;;;;;23.08;6.70;;;;;;;13.08;100.00;92415.69;5052660;28;20040;-80
2023/09/19 02:10:49;;;;;;;26.52;5.90;;;;;;;13.09;100.00;92414.59;5053788;28;20037;-80
2023/09/19 02:13:19;;;;;;;16.85;5.38;;;;;;;13.06;100.00;92409.97;5052590;28;20508;-80
2023/09/19 02:15:46;;;;;;;16.00;5.22;;;;;;;13.04;100.00;92406.09;5053958;28;20075;-80
2023/09/19 02:18:12;;;;;;;15.15;4.80;;;;;;;13.04;100.00;92406.84;5052050;28;20060;-79
2023/09/19 02:20:39;;;;;;;17.70;5.53;;;;;;;13.07;100.00;92405.47;5053784;28;20033;-80
2023/09/19 02:23:05;;;;;;;14.38;4.30;;;;;;;13.02;100.00;92406.38;5053059;28;20025;-80
2023/09/19 02:25:33;;;;;;;10.73;4.05;;;;;;;12.99;100.00;92396.50;5052326;28;20060;-81
2023/09/19 02:28:01;;;;;;;11.10;3.72;;;;;;;13.11;100.00;92401.94;5053666;28;20033;-81
2023/09/19 02:30:26;;;;;;;11.07;3.90;;;;;;;13.20;100.00;92398.56;5053791;28;20515;-81
2023/09/19 02:32:52;;;;;;;11.77;4.10;;;;;;;13.31;100.00;92395.38;5052173;28;20025;-80
2023/09/19 02:35:21;;;;;;;9.30;4.18;;;;;;;13.22;100.00;92388.53;5053542;28;20037;-81
2023/09/19 02:37:47;;;;;;;10.65;3.80;;;;;;;13.19;100.00;92387.25;5052794;28;20025;-81
2023/09/19 02:40:19;;;;;;;8.35;3.85;;;;;;;13.10;100.00;92386.47;5052263;28;20041;-80
2023/09/19 02:42:51;;;;;;;8.88;3.95;;;;;;;13.06;100.00;92391.56;5053310;28;20419;-80
2023/09/19 02:45:20;;;;;;;;;;;;;;;13.02;100.00;92377.47;5054581;28;20124;-80
2023/09/19 02:47:46;;;;;;;14.05;4.10;;;;;;;12.94;100.00;92375.56;5052455;28;19908;-81
2023/09/19 02:50:13;;;;;;;9.82;4.43;;;;;;;12.93;100.00;92374.03;5053628;28;20029;-80
2023/09/19 02:52:43;;;;;;;18.13;4.38;;;;;;;12.91;100.00;92370.94;5053456;28;20394;-80
2023/09/19 02:55:10;;;;;;;11.43;4.22;;;;;;;12.89;100.00;92375.72;5051756;28;20432;-81
2023/09/19 02:57:40;;;;;;;7.43;3.88;;;;;;;12.86;100.00;92374.47;5052353;28;20480;-80
2023/09/19 03:00:09;;;;;;;11.02;4.30;;;;;;;12.83;100.00;92371.66;5052480;28;20033;-80
2023/09/19 03:02:35;;;;;;;8.27;4.10;;;;;;;12.82;100.00;92372.75;5053472;28;20520;-80
2023/09/19 03:05:02;;;;;;;7.53;3.83;;;;;;;12.79;100.00;92378.59;5051894;28;20037;-80
2023/09/19 03:07:28;;;;;;;12.80;3.65;;;;;;;12.80;100.00;92374.91;5052053;28;20060;-79
2023/09/19 03:09:55;;;;;;;10.73;3.83;;;;;;;12.77;100.00;92380.78;5053429;28;20119;-80
2023/09/19 03:12:20;;;;;;;7.82;3.40;;;;;;;12.75;100.00;92375.03;5053752;28;20036;-80
2023/09/19 03:14:46;;;;;;;7.57;3.72;;;;;;;12.74;100.00;92365.59;5055760;28;20099;-81
2023/09/19 03:17:14;;;;;;;11.00;3.75;;;;;;;12.73;100.00;92367.47;5039032;28;20032;-81
2023/09/19 03:19:40;;;;;;;21.10;4.65;;;;;;;12.69;100.00;92371.75;5055664;28;20044;-81
2023/09/19 03:22:07;;;;;;;9.18;3.67;;;;;;;12.67;100.00;92366.78;5055196;28;20040;-81
2023/09/19 03:24:35;;;;;;;15.98;3.63;;;;;;;12.64;100.00;92370.03;5055343;28;20043;-80
2023/09/19 03:27:03;;;;;;;9.68;3.88;;;;;;;12.63;100.00;92373.75;5055652;28;20060;-80
2023/09/19 03:29:29;;;;;;;18.70;3.78;;;;;;;12.62;100.00;92374.81;5055907;28;20037;-81
2023/09/19 03:31:54;;;;;;;8.75;3.30;;;;;;;12.62;100.00;92382.69;5039403;28;20071;-81
2023/09/19 03:34:20;;;;;;;14.43;3.35;;;;;;;12.60;100.00;92387.47;5056331;28;20037;-81
2023/09/19 03:36:46;;;;;;;11.88;3.70;;;;;;;12.61;100.00;92391.66;5056277;28;20028;-81
2023/09/19 03:39:14;;;;;;;10.00;3.55;;;;;;;12.59;100.00;92390.41;5055915;28;20045;-81
2023/09/19 03:41:40;;;;;;;7.20;3.10;;;;;;;12.60;100.00;92384.84;5055890;28;20041;-81
2023/09/19 03:44:06;;;;;;;7.53;3.45;;;;;;;12.61;100.00;92378.53;5055802;28;20035;-80
2023/09/19 03:46:32;;;;;;;10.93;3.30;;;;;;;12.61;100.00;92381.16;5055533;28;20442;-80
2023/09/19 03:48:58;;;;;;;10.88;3.22;;;;;;;12.60;100.00;92381.44;5055403;28;20037;-80
2023/09/19 03:51:24;;;;;;;8.15;3.20;;;;;;;12.57;100.00;92376.81;5055374;28;20099;-80
2023/09/19 03:53:50;;;;;;;13.50;3.30;;;;;;;12.57;100.00;92388.06;5054824;28;20393;-79
2023/09/19 03:56:15;;;;;;;8.27;3.13;;;;;;;12.53;100.00;92383.72;5055606;28;20052;-79
2023/09/19 03:58:41;;;;;;;7.03;2.88;;;;;;;12.50;100.00;92387.72;5054727;28;20041;-80
2023/09/19 04:01:06;;;;;;;12.85;3.67;;;;;;;12.45;100.00;92385.19;5054997;28;20044;-80
2023/09/19 04:03:46;;;;;;;8.73;2.97;;;;;;;12.45;100.00;92379.94;5055094;28;20511;-81
2023/09/19 04:06:16;;;;;;;9.13;2.90;;;;;;;12.42;100.00;92377.94;5056438;28;20029;-81
2023/09/19 04:08:43;;;;;;;8.10;3.00;;;;;;;12.39;100.00;92376.69;5056600;28;20492;-81
2023/09/19 04:11:09;;;;;;;11.13;3.10;;;;;;;12.34;100.00;92378.66;5054943;28;20453;-80
2023/09/19 04:13:35;;;;;;;13.43;3.58;;;;;;;12.34;100.00;92373.41;5056773;28;20079;-80
2023/09/19 04:16:00;;;;;;;22.83;8.65;;;;;;;12.31;100.00;92384.50;5056491;28;20041;-81
2023/09/19 04:18:26;;;;;;;17.48;6.45;;;;;;;12.29;100.00;92377.72;5056441;28;20029;-80
2023/09/19 04:20:53;;;;;;;12.52;4.88;;;;;;;12.26;100.00;92382.78;5055445;28;20036;-81
2023/09/19 04:23:22;;;;;;;10.10;3.35;;;;;;;12.27;100.00;92381.69;5054631;28;20057;-81
2023/09/19 04:25:48;;;;;;;9.30;3.67;;;;;;;12.26;100.00;92373.03;5054450;28;20051;-81
2023/09/19 04:28:15;;;;;;;8.90;3.63;;;;;;;12.23;100.00;92384.16;5056128;28;20029;-81
2023/09/19 04:30:41;;;;;;;10.15;3.63;;;;;;;12.25;100.00;92381.22;5054585;28;20585;-81
2023/09/19 04:33:07;;;;;;;8.82;3.08;;;;;;;12.26;100.00;92382.78;5055788;28;20029;-80
2023/09/19 04:35:33;;;;;;;12.52;3.53;;;;;;;12.26;100.00;92383.53;5055543;28;20044;-80
2023/09/19 04:37:59;;;;;;;16.20;4.22;;;;;;;12.27;100.00;92384.31;5056508;28;20443;-81
2023/09/19 04:40:26;;;;;;;9.57;3.63;;;;;;;12.27;100.00;92385.09;5056137;28;20048;-81
2023/09/19 04:42:58;;;;;;;13.43;3.25;;;;;;;12.30;100.00;92391.59;5055462;28;20392;-81
2023/09/19 04:45:24;;;;;;;15.10;3.65;;;;;;;12.29;100.00;92388.22;5053638;28;20696;-78
2023/09/19 04:47:50;;;;;;;14.73;3.20;;;;;;;12.28;100.00;92384.03;5055314;28;20029;-85
2023/09/19 04:50:17;;;;;;;6.28;2.88;;;;;;;12.31;100.00;92387.91;5047643;28;20048;-82
2023/09/19 04:52:44;;;;;;;7.75;2.92;;;;;;;12.32;100.00;92388.69;5055538;28;20022;-82
2023/09/19 04:55:16;;;;;;;7.30;3.08;;;;;;;12.32;100.00;92393.94;5056521;28;20127;-82
2023/09/19 04:57:52;;;;;;;8.88;2.92;;;;;;;12.29;100.00;92396.09;5057407;28;20517;-83
2023/09/19 05:00:24;;;;;;;9.55;3.03;;;;;;;12.31;100.00;92400.25;5055294;28;20033;-83
2023/09/19 05:02:51;;;;;;;11.73;4.07;;;;;;;12.27;100.00;92406.09;5055777;28;20033;-83
2023/09/19 05:05:17;;;;;;;7.80;3.50;;;;;;;12.28;100.00;92402.41;5056003;28;20028;-81
2023/09/19 05:07:43;;;;;;;13.38;3.90;;;;;;;12.28;100.00;92410.28;5052375;28;20036;-80
2023/09/19 05:10:10;;;;;;;10.07;3.60;;;;;;;12.28;100.00;92405.03;5055004;28;20034;-81
2023/09/19 05:12:35;;;;;;;9.93;3.60;;;;;;;12.29;100.00;92409.22;5050435;28;20078;-83
2023/09/19 05:15:07;;;;;;;10.10;3.60;;;;;;;12.31;100.00;92401.03;5051849;28;20036;-82
2023/09/19 05:17:33;;;;;;;16.52;3.75;;;;;;;12.34;100.00;92408.31;5053377;28;20166;-81
2023/09/19 05:20:05;;;;;;;9.63;3.40;;;;;;;12.36;100.00;92408.78;5055585;28;20055;-83
2023/09/19 05:22:32;;;;;;;13.63;4.03;;;;;;;12.40;100.00;92403.72;5052570;28;20037;-83
2023/09/19 05:24:58;;;;;;;9.50;3.70;;;;;;;12.42;100.00;92404.94;5056062;28;20066;-82
2023/09/19 05:27:24;;;;;;;16.08;4.05;;;;;;;12.55;100.00;92416.47;5056648;28;20039;-82
2023/09/19 05:29:52;;;;;;;14.45;4.15;;;;;;;12.67;100.00;92413.28;5058810;28;20099;-82
2023/09/19 05:32:19;;;;;;;15.13;4.05;;;;;;;12.78;100.00;92409.34;5062005;28;20040;-83
2023/09/19 05:34:47;;;;;;;10.05;3.70;;;;;;;12.91;100.00;92410.34;5057488;28;20086;-82
2023/09/19 05:37:12;;;;;;;12.90;3.55;;;;;;;13.02;100.00;92414.25;5055225;28;20025;-82
2023/09/19 05:39:38;;;;;;;9.18;3.40;;;;;;;13.17;100.00;92420.19;5056464;28;20055;-82
2023/09/19 05:42:04;;;;;;;16.63;3.58;;;;;;;13.88;100.00;92423.53;5056159;28;20048;-83
2023/09/19 05:44:29;;;;;;;8.98;3.17;;;;;;;14.91;100.00;92423.06;5052214;28;20036;-82
2023/09/19 05:46:56;;;;;;;8.18;2.95;;;;;;;15.81;100.00;92419.47;5060959;28;20254;-82
2023/09/19 05:49:22;;;;;;;8.90;3.22;;;;;;;16.69;100.00;92428.28;5057876;28;20025;-81
2023/09/19 05:51:47;;;;;;;11.20;3.10;;;;;;;17.38;100.00;92432.13;5053610;28;20102;-79
2023/09/19 05:54:13;;;;;;;11.95;2.80;;;;;;;18.06;100.00;92434.25;5051285;28;20039;-79
2023/09/19 05:56:39;;;;;;;11.10;2.88;;;;;;;18.64;100.00;92423.38;5050912;28;20048;-80
2023/09/19 05:59:05;;;;;;;6.43;2.40;;;;;;;19.24;100.00;92428.75;5052798;28;20457;-80
2023/09/19 06:01:32;;;;;;;8.45;2.60;;;;;;;19.72;100.00;92426.91;5051917;28;20033;-79
2023/09/19 06:04:00;;;;;;;5.38;2.33;;;;;;;20.19;100.00;92417.31;5054600;28;20050;-80
2023/09/19 06:06:26;;;;;;;6.10;2.15;;;;;;;20.49;100.00;92425.53;5048268;28;20504;-81
2023/09/19 06:08:52;;;;;;;4.85;2.05;;;;;;;20.87;100.00;92431.22;5054296;28;20118;-81
2023/09/19 06:11:20;;;;;;;5.43;2.00;;;;;;;21.21;100.00;92437.59;5053318;28;20044;-81
2023/09/19 06:13:47;;;;;;;7.18;2.72;;;;;;;20.85;100.00;92433.47;5054116;28;20526;-81
2023/09/19 06:16:13;;;;;;;9.15;2.30;;;;;;;20.58;100.00;92438.66;5055403;28;20041;-81
2023/09/19 06:18:39;;;;;;;8.32;2.40;;;;;;;21.20;100.00;92444.78;5053557;28;20028;-81
2023/09/19 06:21:07;;;;;;;6.40;2.22;;;;;;;21.22;100.00;92444.44;5053161;28;20044;-80
2023/09/19 06:23:34;;;;;;;9.05;2.42;;;;;;;21.42;100.00;92442.53;5054752;28;20041;-80
2023/09/19 06:25:59;;;;;;;6.40;2.22;;;;;;;21.22;100.00;92441.78;5054670;28;20079;-81
2023/09/19 06:28:28;;;;;;;7.07;2.28;;;;;;;21.60;100.00;92448.91;5054301;28;20410;-81
2023/09/19 06:30:57;;;;;;;10.05;2.00;;;;;;;22.34;100.00;92455.78;5057666;28;20032;-81
2023/09/19 06:33:23;;;;;;;6.22;2.20;;;;;;;22.96;100.00;92454.63;5053489;28;20040;-81
2023/09/19 06:35:48;;;;;;;8.40;2.50;;;;;;;23.11;100.00;92463.63;5053962;28;20037;-81
2023/09/19 06:38:15;;;;;;;11.60;3.28;;;;;;;23.32;100.00;92466.50;5059636;28;20154;-80
2023/09/19 06:40:42;;;;;;;9.88;3.38;;;;;;;22.20;100.00;92464.31;5057000;28;20033;-78
2023/09/19 06:43:10;;;;;;;9.52;3.22;;;;;;;21.63;100.00;92460.75;5060295;28;20465;-78
2023/09/19 06:45:36;;;;;;;6.30;3.10;;;;;;;22.03;100.00;92459.50;5055181;28;20024;-80
2023/09/19 06:48:03;;;;;;;13.52;3.28;;;;;;;22.69;100.00;92456.59;5069975;28;20043;-79
2023/09/19 06:50:32;;;;;;;10.38;3.65;;;;;;;23.17;100.00;92459.47;5073707;28;20459;-80
2023/09/19 06:53:00;;;;;;;11.40;3.20;;;;;;;22.86;100.00;92454.16;5056102;28;20036;-79
2023/09/19 06:55:27;;;;;;;8.48;3.10;;;;;;;23.48;100.00;92464.41;5053663;28;20028;-79
2023/09/19 06:57:57;;;;;;;7.90;3.22;;;;;;;23.45;100.00;92465.13;5058265;28;20563;-80
2023/09/19 07:00:23;;;;;;;9.77;3.50;;;;;;;24.31;100.00;92468.50;5073207;28;20041;-81
2023/09/19 07:03:03;;;;;;;8.05;3.22;;;;;;;24.53;100.00;92466.00;5051371;28;20041;-81
2023/09/19 07:05:37;;;;;;;9.05;2.80;;;;;;;25.34;100.00;92466.75;5058242;28;20094;-81
2023/09/19 07:08:03;;;;;;;7.40;2.33;;;;;;;25.42;100.00;92475.56;5058356;28;20064;-81
2023/09/19 07:10:30;;;;;;;10.25;2.88;;;;;;;25.80;100.00;92467.97;5057931;28;20036;-80
2023/09/19 07:13:17;;;;;;;9.85;3.55;;;;;;;24.81;100.00;92475.31;5073912;28;20037;-80
2023/09/19 07:15:46;;;;;;;9.50;3.63;;;;;;;23.47;100.00;92468.19;5058420;28;20067;-81
2023/09/19 07:18:19;;;;;;;6.75;3.65;;;;;;;22.46;100.00;92486.78;5057642;28;20043;-79
2023/09/19 07:20:49;;;;;;;17.75;3.85;;;;;;;21.29;100.00;92489.81;5057427;28;20068;-82
2023/09/19 07:23:19;;;;;;;9.65;3.20;;;;;;;21.02;100.00;92482.84;5057776;28;20037;-82
2023/09/19 07:25:46;;;;;;;5.85;2.85;;;;;;;21.38;100.00;92489.59;5057112;28;20041;-83
2023/09/19 07:28:11;;;;;;;13.20;3.40;;;;;;;21.56;100.00;92492.59;5057684;28;20025;-82
2023/09/19 07:30:37;;;;;;;12.20;2.90;;;;;;;22.04;100.00;92487.66;5056608;28;20663;-82
2023/09/19 07:33:04;;;;;;;9.52;3.10;;;;;;;22.62;100.00;92490.06;5058254;28;20021;-82
2023/09/19 07:35:29;;;;;;;8.52;2.78;;;;;;;22.79;100.00;92494.09;5059364;28;20082;-82
2023/09/19 07:37:56;;;;;;;9.15;2.40;;;;;;;22.98;100.00;92501.19;5057768;28;20668;-82
2023/09/19 07:40:23;;;;;;;13.77;3.17;;;;;;;23.19;100.00;92505.25;5077691;28;20036;-82
2023/09/19 07:42:50;;;;;;;6.82;2.65;;;;;;;23.35;100.00;92508.53;5077536;28;20048;-82
2023/09/19 07:45:16;;;;;;;8.85;2.50;;;;;;;23.45;100.00;92502.50;5076661;28;20511;-82
2023/09/19 07:47:49;;;;;;;13.07;2.80;;;;;;;23.51;100.00;92513.66;5077424;28;20502;-83
2023/09/19 07:50:18;;;;;;;8.95;2.70;;;;;;;23.03;100.00;92506.25;5074982;28;20032;-82
2023/09/19 07:52:44;;;;;;;11.60;3.15;;;;;;;23.13;100.00;92512.09;5075810;28;20029;-81
2023/09/19 07:55:17;;;;;;;9.65;3.70;;;;;;;22.72;100.00;92517.25;5074971;28;20040;-81
2023/09/19 07:57:49;;;;;;;12.55;4.13;;;;;;;21.86;100.00;92510.59;5075520;28;20072;-81
2023/09/19 08:00:15;;;;;;;13.45;3.80;;;;;;;21.95;100.00;92511.91;5075610;28;20065;-80
2023/09/19 08:02:41;;;;;;;9.30;3.53;;;;;;;22.24;100.00;92518.47;5074331;28;20039;-81
2023/09/19 08:05:11;;;;;;;8.10;2.92;;;;;;;22.72;100.00;92525.25;5076109;28;20093;-81
2023/09/19 08:07:43;;;;;;;12.02;4.40;;;;;;;22.84;100.00;92519.69;5076284;28;20076;-82
2023/09/19 08:10:13;;;;;;;7.50;2.90;;;;;;;22.93;100.00;92525.53;5065447;28;20070;-80
2023/09/19 08:12:46;;;;;;;6.28;2.67;;;;;;;23.13;100.00;92525.44;5056097;28;20447;-78
2023/09/19 08:15:20;;;;;;;13.13;3.95;;;;;;;23.12;100.00;92526.53;5051642;28;20037;-78
2023/09/19 08:17:47;;;;;;;14.32;4.45;;;;;;;22.67;100.00;92518.31;5059703;28;20485;-78
2023/09/19 08:20:17;;;;;;;10.82;2.60;;;;;;;22.57;100.00;92524.28;5053599;28;20079;-78
2023/09/19 08:22:52;;;;;;;9.18;3.33;;;;;;;22.95;100.00;92530.53;5058070;28;20035;-78
2023/09/19 08:25:18;;;;;;;13.10;4.38;;;;;;;22.16;100.00;92522.13;5061246;28;20039;-77
2023/09/19 08:27:49;;;;;;;11.70;3.92;;;;;;;21.95;100.00;92511.91;5050496;28;20029;-77
2023/09/19 08:30:23;;;;;;;10.98;3.55;;;;;;;21.78;100.00;92517.72;5056024;28;20055;-76
2023/09/19 08:33:00;;;;;;;9.18;3.42;;;;;;;21.53;100.00;92520.72;5053026;28;20037;-77
2023/09/19 08:35:27;;;;;;;8.43;3.95;;;;;;;21.49;100.00;92521.78;5048641;28;20037;-77
2023/09/19 08:37:53;;;;;;;11.13;3.53;;;;;;;21.25;100.00;92517.50;5053111;28;20028;-77
2023/09/19 08:40:19;;;;;;;11.60;3.80;;;;;;;20.86;100.00;92517.50;5053022;28;20071;-77
2023/09/19 08:42:49;;;;;;;8.88;3.38;;;;;;;20.59;100.00;92526.06;5052667;28;20040;-77
2023/09/19 08:45:15;;;;;;;8.20;3.80;;;;;;;20.59;100.00;92522.63;5047949;28;20037;-77
2023/09/19 08:47:48;;;;;;;8.60;3.55;;;;;;;20.61;100.00;92522.28;5053041;28;20024;-78
2023/09/19 08:50:26;;;;;;;10.43;4.07;;;;;;;20.52;100.00;92520.56;5048743;28;20108;-77
2023/09/19 08:52:55;;;;;;;8.60;3.45;;;;;;;20.35;100.00;92521.72;5052056;28;21441;-78
2023/09/19 08:55:26;;;;;;;12.77;3.85;;;;;;;20.56;100.00;92529.41;5054507;28;20135;-78
2023/09/19 08:57:58;;;;;;;11.90;3.50;;;;;;;20.76;100.00;92524.91;5068004;28;20040;-77
2023/09/19 09:00:27;;;;;;;14.38;3.58;;;;;;;20.74;100.00;92521.81;5055082;28;20081;-77
2023/09/19 09:02:54;;;;;;;8.70;3.75;;;;;;;20.87;100.00;92517.13;5047495;28;20115;-77
2023/09/19 09:05:22;;;;;;;5.57;2.83;;;;;;;20.98;100.00;92526.13;5052446;28;20484;-78
2023/09/19 09:07:51;;;;;;;13.20;3.72;;;;;;;20.94;100.00;92521.81;5043864;28;20031;-77
2023/09/19 09:10:23;;;;;;;9.13;3.25;;;;;;;20.84;100.00;92520.50;5049552;28;20036;-77
2023/09/19 09:12:55;;;;;;;;;;;;;;;20.71;100.00;92522.50;5053297;28;20033;-77
2023/09/19 09:15:23;;;;;;;8.30;3.40;;;;;;;20.51;100.00;92524.34;5051621;28;20303;-77
2023/09/19 09:17:55;;;;;;;10.02;3.53;;;;;;;20.72;100.00;92517.97;5045632;28;20431;-77
2023/09/19 09:20:21;;;;;;;10.93;3.67;;;;;;;21.02;100.00;92520.09;5052525;28;20033;-77
2023/09/19 09:22:54;;;;;;;14.00;4.00;;;;;;;21.14;100.00;92522.59;5051710;28;20029;-77
2023/09/19 09:25:23;;;;;;;12.23;3.60;;;;;;;21.06;100.00;92521.69;5052025;28;20036;-77
2023/09/19 09:28:02;;;;;;;10.70;3.50;;;;;;;20.65;100.00;92533.75;5051844;28;20057;-77
2023/09/19 09:30:39;;;;;;;10.57;3.83;;;;;;;20.95;100.00;92524.13;5050708;28;20040;-77
2023/09/19 09:33:12;;;;;;;10.32;3.63;;;;;;;20.97;100.00;92534.44;5052926;28;20390;-77
2023/09/19 09:35:56;;;;;;;8.50;3.53;;;;;;;21.06;100.00;92532.34;5056025;28;20036;-78
2023/09/19 09:38:32;;;;;;;8.43;3.38;;;;;;;21.30;100.00;92525.97;5050900;28;20045;-77
2023/09/19 09:43:41;;;;;;;8.63;3.92;;;;;;;21.12;100.00;92525.63;5051289;28;20074;-77
2023/09/19 09:49:26;;;;;;;10.38;3.63;;;;;;;21.24;100.00;92527.38;5046412;28;20033;-76
2023/09/19 09:52:23;;;;;;;15.10;3.92;;;;;;;21.67;100.00;92524.75;5053292;28;20557;-78
2023/09/19 09:55:20;;;;;;;10.52;3.90;;;;;;;21.68;100.00;92529.72;5052864;28;20131;-76
2023/09/19 09:57:45;;;;;;;7.15;3.20;;;;;;;21.69;100.00;92528.59;5039302;28;20128;-77
2023/09/19 10:02:40;;;;;;;10.52;3.40;;;;;;;21.69;100.00;92530.50;5062264;28;20041;-77
2023/09/19 10:05:21;;;;;;;16.73;3.63;;;;;;;22.16;100.00;92522.13;5054210;28;20070;-77
2023/09/19 10:07:53;;;;;;;9.35;3.70;;;;;;;21.85;100.00;92522.41;5056315;28;20115;-77
2023/09/19 10:13:13;;;;;;;10.38;3.60;;;;;;;22.01;100.00;92525.69;5053983;28;20155;-78
2023/09/19 10:15:46;;;;;;;8.02;3.47;;;;;;;21.94;100.00;92523.69;5051147;28;20037;-77
2023/09/19 10:18:18;;;;;;;8.88;3.42;;;;;;;22.04;100.00;92522.31;5051158;28;20110;-77
2023/09/19 10:20:45;;;;;;;11.68;3.70;;;;;;;21.96;100.00;92524.09;5045945;28;20067;-77
2023/09/19 10:23:17;;;;;;;7.80;3.30;;;;;;;22.16;100.00;92516.81;5051168;28;20392;-77
2023/09/19 10:25:47;;;;;;;9.82;3.58;;;;;;;22.08;100.00;92517.81;5054039;28;20033;-77
2023/09/19 10:28:14;;;;;;;6.15;3.47;;;;;;;21.99;100.00;92517.28;5050077;28;20094;-77
2023/09/19 10:30:44;;;;;;;10.48;3.33;;;;;;;21.99;100.00;92523.38;5049860;28;20361;-77
2023/09/19 10:33:15;;;;;;;7.32;3.08;;;;;;;21.78;100.00;92523.81;5049462;28;20041;-77
2023/09/19 10:35:46;;;;;;;7.13;3.00;;;;;;;21.76;100.00;92526.06;5060680;28;20059;-76
2023/09/19 10:38:14;;;;;;;12.05;3.35;;;;;;;21.54;100.00;92530.22;5056886;28;20037;-76
2023/09/19 10:40:43;;;;;;;10.65;2.85;;;;;;;21.62;100.00;92525.81;5053423;28;20083;-76
2023/09/19 10:43:18;;;;;;;11.82;3.05;;;;;;;21.83;100.00;92523.50;5048839;28;20102;-76
2023/09/19 10:45:52;;;;;;;8.30;3.10;;;;;;;21.82;100.00;92523.88;5051882;28;20032;-76
2023/09/19 10:48:19;;;;;;;7.72;2.45;;;;;;;22.03;100.00;92526.13;5057988;28;20033;-76
2023/09/19 10:51:00;;;;;;;7.82;2.85;;;;;;;22.12;100.00;92523.22;5051785;28;20047;-76
2023/09/19 10:53:30;;;;;;;10.02;3.95;;;;;;;22.01;100.00;92531.03;5051523;28;20024;-76
2023/09/19 10:55:59;;;;;;;10.95;3.17;;;;;;;22.14;100.00;92515.63;5053357;28;20048;-76
2023/09/19 10:58:34;;;;;;;8.75;3.38;;;;;;;22.29;100.00;92524.63;5044800;28;20037;-77
2023/09/19 11:01:06;;;;;;;9.43;2.90;;;;;;;22.00;100.00;92519.59;5050576;28;20040;-76
2023/09/19 11:03:33;;;;;;;8.20;3.22;;;;;;;21.81;100.00;92517.00;5054390;28;20033;-77
2023/09/19 11:06:16;;;;;;;7.60;2.72;;;;;;;21.96;100.00;92526.78;5051773;28;20296;-76
2023/09/19 11:11:39;;;;;;;9.88;3.20;;;;;;;21.95;100.00;92516.47;5053533;28;20492;-77
2023/09/19 11:14:20;;;;;;;9.73;3.15;;;;;;;21.97;100.00;92522.22;5054244;28;20028;-77
2023/09/19 11:17:17;;;;;;;6.57;2.92;;;;;;;22.00;100.00;92518.84;5056057;28;20037;-77
2023/09/19 11:22:58;;;;;;;9.95;3.15;;;;;;;22.33;100.00;92517.47;5050371;28;20139;-77
2023/09/19 11:25:30;;;;;;;5.88;3.03;;;;;;;22.27;100.00;92519.69;5040432;28;20045;-77
2023/09/19 11:28:15;;;;;;;6.07;3.15;;;;;;;22.19;100.00;92518.00;5055925;28;20047;-77
2023/09/19 11:30:44;;;;;;;9.57;2.97;;;;;;;22.21;100.00;92513.88;5048208;28;20087;-76
2023/09/19 11:33:37;;;;;;;15.60;3.03;;;;;;;22.33;100.00;92520.13;5062129;28;20032;-77
2023/09/19 11:36:09;;;;;;;12.68;3.17;;;;;;;22.33;100.00;92515.56;5067587;28;20127;-77
2023/09/19 11:38:53;;;;;;;8.50;2.67;;;;;;;22.70;100.00;92516.81;5054217;28;20039;-76
2023/09/19 11:41:25;;;;;;;9.15;2.38;;;;;;;22.70;100.00;92520.28;5056719;28;20047;-76
2023/09/19 11:43:51;;;;;;;;;;;;;;;22.75;100.00;92524.53;5055263;28;20041;-77
2023/09/19 11:46:21;;;;;;;13.98;2.60;;;;;;;23.17;100.00;92526.22;5053494;28;19919;-76
2023/09/19 11:48:51;;;;;;;6.97;2.28;;;;;;;23.25;100.00;92519.84;5053150;28;20032;-76
2023/09/19 11:51:27;;;;;;;6.63;2.40;;;;;;;23.43;100.00;92520.81;5075647;28;20036;-80